Pelican, Alaska
Current Conditions -  °F | °C
As of 5:56 AM on Thursday 30 Oct 2014 (Local Time) from PAOH Reporting Station
Light Rain Light Rain  
Wind Chill: 38°   Ceiling: 4200
Heat Index: 43°   Visibility: 6mi
Dew Point: 43°   Wind: 8mph
Humidity: 100%   Direction: 100°E
Pressure: 29.48"   Gusts: NA
Location:  57.96°N, 136.23°W
Report Text: PAOH 301356Z AUTO 10007KT 6SM -RA BR FEW027 OVC042 06/06 A2948 RMK AO2 TSNO T00610061 P0005 SLP984 $
Loading
Personal Weather Stations






























Interactive Weather Map
Tropical Storm Tracking
New forecast layout! Learn more

10-Day Weather Forecast

Advertisements
Track Severe Weather on mobile